Time;durP1;ratioP1;P1;durP2;ratioP2;P2;SDS_P1;SDS_P2;PMS_P1;PMS_P2;Temp;Humidity;BMP_temperature;BMP_pressure;BME280_temperature;BME280_humidity;BME280_pressure;Samples;Min_cycle;Max_cycle;Signal;HPM_P1;HPM_P2
2023/05/04 00:01:05;;;;;;;18.98;17.17;;;;;;;;;;4996663;28;20499;-78
2023/05/04 00:03:30;;;;;;;24.35;19.10;;;;;;;;;;4978089;28;20041;-78
2023/05/04 00:05:56;;;;;;;22.42;20.17;;;;;;;;;;5005666;28;20021;-78
2023/05/04 00:08:21;;;;;;;20.38;18.33;;;;;;;;;;4986584;28;20018;-77
2023/05/04 00:10:46;;;;;;;20.75;18.73;;;;;;;;;;4987685;28;20491;-80
2023/05/04 00:13:11;;;;;;;20.13;18.23;;;;;;;;;;5006850;28;20054;-80
2023/05/04 00:15:37;;;;;;;23.38;20.92;;;;;;;;;;4988622;28;20562;-81
2023/05/04 00:18:02;;;;;;;20.75;18.63;;;;;;;;;;4987152;28;20025;-81
2023/05/04 00:20:27;;;;;;;20.98;18.90;;;;;;;;;;4989826;28;20580;-79
2023/05/04 00:22:52;;;;;;;20.60;18.27;;;;;;;;;;4985180;28;20060;-79
2023/05/04 00:25:18;;;;;;;20.85;18.77;;;;;;;;;;4982879;28;20094;-76
2023/05/04 00:27:43;;;;;;;20.05;17.85;;;;;;;;;;4982687;28;20460;-76
2023/05/04 00:30:08;;;;;;;21.63;19.40;;;;;;;;;;4982490;28;20018;-76
2023/05/04 00:32:34;;;;;;;21.55;18.38;;;;;;;;;;4982617;28;20296;-79
2023/05/04 00:34:59;;;;;;;22.13;19.73;;;;;;;;;;4983210;28;20423;-77
2023/05/04 00:37:24;;;;;;;20.15;18.02;;;;;;;;;;5000169;28;20036;-76
2023/05/04 00:39:50;;;;;;;21.60;19.30;;;;;;;;;;4982988;28;20334;-79
2023/05/04 00:42:15;;;;;;;20.35;17.35;;;;;;;;;;4982074;28;20049;-76
2023/05/04 00:44:41;;;;;;;23.02;19.13;;;;;;;;;;5000165;28;20384;-77
2023/05/04 00:47:06;;;;;;;21.63;18.02;;;;;;;;;;4982562;28;20022;-79
2023/05/04 00:49:32;;;;;;;21.95;19.85;;;;;;;;;;4984531;28;20579;-79
2023/05/04 00:51:57;;;;;;;20.83;18.70;;;;;;;;;;4986607;28;20024;-76
2023/05/04 00:54:23;;;;;;;21.05;18.92;;;;;;;;;;4986174;28;20471;-79
2023/05/04 00:56:48;;;;;;;25.58;22.85;;;;;;;;;;5005074;28;20495;-78
2023/05/04 00:59:14;;;;;;;24.00;20.42;;;;;;;;;;5004761;28;20377;-79
2023/05/04 01:01:40;;;;;;;23.73;21.23;;;;;;;;;;4987641;28;20029;-79
2023/05/04 01:04:05;;;;;;;19.05;17.10;;;;;;;;;;4988275;28;20041;-79
2023/05/04 01:06:40;;;;;;;19.90;17.98;;;;;;;;;;4987952;28;20030;-79
2023/05/04 01:09:24;;;;;;;21.30;19.02;;;;;;;;;;4988892;28;20470;-80
2023/05/04 01:11:57;;;;;;;22.65;20.23;;;;;;;;;;4994797;28;20514;-80
2023/05/04 01:14:23;;;;;;;26.92;22.13;;;;;;;;;;4997714;28;20022;-81
2023/05/04 01:16:49;;;;;;;21.00;18.88;;;;;;;;;;5017036;28;20032;-81
2023/05/04 01:19:15;;;;;;;21.15;19.13;;;;;;;;;;5021217;28;20026;-80
2023/05/04 01:21:41;;;;;;;19.05;17.25;;;;;;;;;;4998669;28;20025;-80
2023/05/04 01:24:06;;;;;;;22.52;19.98;;;;;;;;;;5001205;28;20334;-81
2023/05/04 01:26:36;;;;;;;18.13;16.23;;;;;;;;;;5018602;28;20109;-80
2023/05/04 01:29:22;;;;;;;21.35;19.50;;;;;;;;;;5008745;28;20281;-80
2023/05/04 01:32:19;;;;;;;18.77;16.92;;;;;;;;;;5031248;28;20013;-80
2023/05/04 01:37:58;;;;;;;13.95;12.52;;;;;;;;;;5023492;28;20028;-80
2023/05/04 01:40:35;;;;;;;12.95;11.77;;;;;;;;;;5028323;28;20116;-79
2023/05/04 01:43:03;;;;;;;14.32;12.88;;;;;;;;;;5000498;28;20041;-80
2023/05/04 01:45:30;;;;;;;11.52;10.35;;;;;;;;;;4993110;28;20132;-78
2023/05/04 02:00:26;;;;;;;11.20;10.00;;;;;;;;;;5245340;23;20072;-81
2023/05/04 02:03:40;;;;;;;12.38;10.90;;;;;;;;;;5050550;22;20372;-81
2023/05/04 02:09:17;;;;;;;15.30;12.20;;;;;;;;;;5278023;22;20053;-81
2023/05/04 02:12:10;;;;;;;13.70;12.35;;;;;;;;;;4995707;28;20007;-80
2023/05/04 02:14:59;;;;;;;14.23;12.70;;;;;;;;;;5035857;28;20022;-80
2023/05/04 04:37:43;;;;;;;15.93;14.50;;;;;;;;;;5256713;23;20102;-80
2023/05/04 04:40:09;;;;;;;18.38;13.98;;;;;;;;;;5015866;28;20046;-80
2023/05/04 04:42:35;;;;;;;16.33;14.68;;;;;;;;;;5002639;28;20049;-80
2023/05/04 04:45:21;;;;;;;14.85;13.32;;;;;;;;;;5027066;28;20230;-80
2023/05/04 04:47:53;;;;;;;15.98;14.13;;;;;;;;;;5020325;28;20002;-80
2023/05/04 06:45:04;;;;;;;7.22;6.53;;;;;;;;;;5016085;28;20098;-79
2023/05/04 06:47:33;;;;;;;7.68;7.05;;;;;;;;;;5025214;28;20026;-80
2023/05/04 06:50:00;;;;;;;6.25;5.75;;;;;;;;;;5004251;28;20114;-79
2023/05/04 06:58:07;;;;;;;6.38;5.88;;;;;;;;;;5060159;22;20050;-79
2023/05/04 07:00:33;;;;;;;6.97;6.38;;;;;;;;;;5001873;28;20022;-77
2023/05/04 07:02:59;;;;;;;8.05;6.25;;;;;;;;;;4999862;28;20034;-78
2023/05/04 07:05:25;;;;;;;6.50;5.97;;;;;;;;;;4986648;28;20604;-80
2023/05/04 07:07:50;;;;;;;8.02;7.07;;;;;;;;;;4992471;28;20356;-80
2023/05/04 07:10:16;;;;;;;9.38;7.05;;;;;;;;;;5004034;28;20101;-80
2023/05/04 07:12:42;;;;;;;6.97;6.32;;;;;;;;;;5010620;28;20025;-80
2023/05/04 07:15:08;;;;;;;8.35;6.82;;;;;;;;;;5000811;28;20018;-82
2023/05/04 07:17:56;;;;;;;7.80;7.10;;;;;;;;;;5006847;28;20022;-81
2023/05/04 07:20:23;;;;;;;8.43;7.72;;;;;;;;;;5020074;28;20030;-80
2023/05/04 07:22:48;;;;;;;11.45;6.90;;;;;;;;;;4997810;28;20034;-80
2023/05/04 07:25:14;;;;;;;8.77;7.40;;;;;;;;;;4995946;28;20018;-81
2023/05/04 07:27:42;;;;;;;8.52;7.00;;;;;;;;;;5000133;28;20049;-81
2023/05/04 07:30:10;;;;;;;9.88;8.57;;;;;;;;;;4991890;28;20078;-81
2023/05/04 07:32:35;;;;;;;10.95;9.80;;;;;;;;;;4999103;28;20022;-81
2023/05/04 07:35:02;;;;;;;9.20;8.30;;;;;;;;;;5012226;28;20036;-81
2023/05/04 07:37:29;;;;;;;13.95;10.30;;;;;;;;;;4992997;28;20072;-81
2023/05/04 07:39:55;;;;;;;12.35;9.73;;;;;;;;;;4999206;28;20025;-80
2023/05/04 07:42:22;;;;;;;11.05;9.00;;;;;;;;;;4998017;28;20040;-80
2023/05/04 07:44:50;;;;;;;11.88;9.15;;;;;;;;;;4998669;28;20050;-79
2023/05/04 07:47:16;;;;;;;10.07;8.45;;;;;;;;;;4979051;28;20065;-80
2023/05/04 07:49:41;;;;;;;11.55;10.35;;;;;;;;;;4984975;28;20463;-80
2023/05/04 07:52:06;;;;;;;14.82;10.52;;;;;;;;;;4984663;28;20444;-80
2023/05/04 07:54:31;;;;;;;18.10;9.95;;;;;;;;;;5003173;28;20026;-79
2023/05/04 07:56:57;;;;;;;15.13;10.50;;;;;;;;;;4991448;28;20184;-78
2023/05/04 07:59:22;;;;;;;12.23;10.77;;;;;;;;;;5022247;28;20422;-78
2023/05/04 08:01:47;;;;;;;14.13;12.27;;;;;;;;;;5004322;28;20506;-78
2023/05/04 08:04:13;;;;;;;20.13;13.52;;;;;;;;;;5015433;28;20024;-78
2023/05/04 08:06:38;;;;;;;17.65;13.10;;;;;;;;;;5025240;28;20070;-79
2023/05/04 08:09:04;;;;;;;19.08;13.68;;;;;;;;;;5008246;28;20851;-79
2023/05/04 08:11:32;;;;;;;16.35;13.95;;;;;;;;;;5027180;28;20025;-80
2023/05/04 08:13:57;;;;;;;15.77;13.43;;;;;;;;;;5029245;28;20516;-81
2023/05/04 08:16:22;;;;;;;17.05;13.88;;;;;;;;;;5009980;28;20013;-80
2023/05/04 08:18:47;;;;;;;17.83;13.90;;;;;;;;;;5024046;28;20064;-80
2023/05/04 08:21:13;;;;;;;17.75;14.30;;;;;;;;;;5025925;28;20662;-79
2023/05/04 08:23:38;;;;;;;20.95;14.60;;;;;;;;;;5007453;28;20030;-79
2023/05/04 08:26:04;;;;;;;18.67;13.77;;;;;;;;;;5025569;28;20029;-79
2023/05/04 08:28:29;;;;;;;18.00;12.77;;;;;;;;;;5024371;28;20044;-79
2023/05/04 08:30:55;;;;;;;18.75;13.75;;;;;;;;;;5006492;28;20022;-79
2023/05/04 08:33:20;;;;;;;17.10;13.80;;;;;;;;;;5033650;28;20017;-80
2023/05/04 08:35:46;;;;;;;14.73;12.27;;;;;;;;;;5036144;28;20032;-79
2023/05/04 08:38:11;;;;;;;21.17;14.57;;;;;;;;;;5028749;28;21066;-79
2023/05/04 08:40:39;;;;;;;19.13;13.60;;;;;;;;;;5007046;28;20280;-79
2023/05/04 08:43:04;;;;;;;19.80;14.15;;;;;;;;;;5003334;28;20329;-79
2023/05/04 08:45:30;;;;;;;17.73;12.85;;;;;;;;;;5021026;28;20029;-79
2023/05/04 08:47:55;;;;;;;18.67;12.88;;;;;;;;;;5007645;28;20498;-79
2023/05/04 08:50:21;;;;;;;17.15;13.25;;;;;;;;;;5003969;28;20396;-79
2023/05/04 08:52:46;;;;;;;19.65;12.48;;;;;;;;;;5018425;28;20032;-79
2023/05/04 08:55:12;;;;;;;14.15;11.77;;;;;;;;;;5023364;28;20022;-79
2023/05/04 08:57:40;;;;;;;17.95;12.95;;;;;;;;;;5034157;28;20056;-80
2023/05/04 09:00:07;;;;;;;20.30;13.30;;;;;;;;;;5009482;28;20014;-79
2023/05/04 09:02:33;;;;;;;15.95;13.10;;;;;;;;;;4993790;28;20033;-77
2023/05/04 09:05:00;;;;;;;17.75;11.88;;;;;;;;;;5012898;28;20343;-77
2023/05/04 09:07:25;;;;;;;15.18;13.38;;;;;;;;;;5025167;28;20013;-79
2023/05/04 09:09:51;;;;;;;15.40;12.45;;;;;;;;;;5015645;28;20490;-79
2023/05/04 09:12:17;;;;;;;20.73;13.35;;;;;;;;;;5026034;28;20027;-79
2023/05/04 09:14:42;;;;;;;15.38;12.25;;;;;;;;;;5022653;28;20032;-77
2023/05/04 09:17:16;;;;;;;12.35;11.18;;;;;;;;;;5020326;28;20033;-77
2023/05/04 09:19:43;;;;;;;13.43;11.98;;;;;;;;;;5001869;28;20089;-79
2023/05/04 09:22:15;;;;;;;15.07;13.10;;;;;;;;;;5026581;28;20033;-79
2023/05/04 09:24:41;;;;;;;16.80;11.77;;;;;;;;;;5030198;28;20029;-80
2023/05/04 09:27:10;;;;;;;16.05;13.07;;;;;;;;;;5034094;28;20497;-80
2023/05/04 09:29:38;;;;;;;18.60;13.35;;;;;;;;;;5013114;28;20132;-80
2023/05/04 09:32:04;;;;;;;18.92;12.82;;;;;;;;;;5029878;28;20021;-79
2023/05/04 09:34:31;;;;;;;17.63;13.88;;;;;;;;;;5030215;28;20032;-79
2023/05/04 09:36:57;;;;;;;15.73;11.63;;;;;;;;;;5036038;28;20026;-80
2023/05/04 09:39:22;;;;;;;16.23;12.15;;;;;;;;;;5013984;28;20025;-80
2023/05/04 09:41:48;;;;;;;14.93;12.25;;;;;;;;;;5031820;28;20037;-77
2023/05/04 09:44:21;;;;;;;12.43;11.02;;;;;;;;;;5014946;28;20072;-78
2023/05/04 09:46:59;;;;;;;13.10;11.57;;;;;;;;;;5038772;28;20796;-78
2023/05/04 09:49:34;;;;;;;15.05;11.73;;;;;;;;;;5022847;28;20025;-80
2023/05/04 09:52:01;;;;;;;16.25;12.13;;;;;;;;;;5031621;28;20577;-79
2023/05/04 09:54:28;;;;;;;12.90;11.25;;;;;;;;;;5008324;28;20037;-78
2023/05/04 09:56:57;;;;;;;18.33;13.85;;;;;;;;;;5032083;28;20052;-77
2023/05/04 09:59:25;;;;;;;18.80;15.70;;;;;;;;;;5018133;28;20526;-78
2023/05/04 10:01:51;;;;;;;21.02;15.55;;;;;;;;;;5022561;28;20134;-77
2023/05/04 10:04:16;;;;;;;23.17;15.82;;;;;;;;;;5011578;28;20021;-77
2023/05/04 10:06:42;;;;;;;15.02;13.05;;;;;;;;;;5015994;28;20083;-78
2023/05/04 10:09:08;;;;;;;14.90;13.40;;;;;;;;;;5044292;28;20022;-79
2023/05/04 10:11:33;;;;;;;12.75;11.45;;;;;;;;;;5036097;28;20017;-79
2023/05/04 10:13:59;;;;;;;12.90;11.50;;;;;;;;;;5047340;28;20008;-79
2023/05/04 10:16:24;;;;;;;15.43;13.35;;;;;;;;;;5022866;28;20025;-79
2023/05/04 10:18:59;;;;;;;15.65;14.05;;;;;;;;;;5028770;28;20029;-78
2023/05/04 10:21:27;;;;;;;14.52;13.02;;;;;;;;;;5023190;28;20091;-79
2023/05/04 10:23:55;;;;;;;19.67;13.93;;;;;;;;;;5018025;28;20030;-78
2023/05/04 10:26:30;;;;;;;17.40;14.65;;;;;;;;;;5027382;28;20052;-77
2023/05/04 10:29:05;;;;;;;13.88;11.55;;;;;;;;;;5029667;28;20056;-79
2023/05/04 10:31:39;;;;;;;13.65;11.38;;;;;;;;;;5004870;28;20040;-79
2023/05/04 10:34:05;;;;;;;16.33;10.95;;;;;;;;;;5027610;28;20032;-78
2023/05/04 10:36:41;;;;;;;12.73;11.40;;;;;;;;;;5028723;28;20051;-78
2023/05/04 10:39:22;;;;;;;13.68;11.05;;;;;;;;;;5016646;28;20026;-78
2023/05/04 10:42:04;;;;;;;12.55;9.27;;;;;;;;;;5004974;28;20032;-79
2023/05/04 10:44:30;;;;;;;9.70;7.35;;;;;;;;;;5030657;28;20036;-81
2023/05/04 10:47:06;;;;;;;13.75;10.63;;;;;;;;;;5015184;28;20029;-78
2023/05/04 10:49:32;;;;;;;13.75;11.85;;;;;;;;;;5034436;28;20041;-78
2023/05/04 10:52:10;;;;;;;13.00;10.52;;;;;;;;;;5035224;28;20022;-78
2023/05/04 10:54:37;;;;;;;13.35;9.93;;;;;;;;;;5014879;28;20056;-79
2023/05/04 10:57:03;;;;;;;12.77;11.10;;;;;;;;;;5031580;28;20049;-80
2023/05/04 10:59:29;;;;;;;17.38;10.85;;;;;;;;;;5016809;28;20005;-79
2023/05/04 11:01:55;;;;;;;15.77;11.30;;;;;;;;;;5030181;28;20026;-80
2023/05/04 11:04:21;;;;;;;14.07;11.27;;;;;;;;;;5032405;28;20415;-80
2023/05/04 11:07:15;;;;;;;13.18;10.88;;;;;;;;;;5032312;28;20021;-81
2023/05/04 11:09:43;;;;;;;14.50;10.18;;;;;;;;;;4990840;28;20427;-80
2023/05/04 11:12:09;;;;;;;13.05;11.13;;;;;;;;;;5019750;28;20115;-80
2023/05/04 11:14:40;;;;;;;18.05;12.50;;;;;;;;;;5003418;28;20506;-80
2023/05/04 11:17:08;;;;;;;17.95;12.52;;;;;;;;;;5028102;28;20976;-79
2023/05/04 11:19:34;;;;;;;16.75;13.80;;;;;;;;;;5027600;28;20551;-78
2023/05/04 11:22:00;;;;;;;15.90;12.80;;;;;;;;;;5028235;28;20041;-78
2023/05/04 11:24:34;;;;;;;17.20;13.13;;;;;;;;;;5012963;28;20013;-80
2023/05/04 11:27:00;;;;;;;16.67;12.82;;;;;;;;;;5024120;28;20056;-80
2023/05/04 11:29:25;;;;;;;16.33;12.20;;;;;;;;;;5027226;28;20057;-80
2023/05/04 11:31:54;;;;;;;14.18;11.38;;;;;;;;;;5019342;28;20048;-77
2023/05/04 11:34:20;;;;;;;15.32;13.05;;;;;;;;;;5028415;28;20386;-78
2023/05/04 11:36:45;;;;;;;18.90;13.82;;;;;;;;;;5019743;28;20030;-78
2023/05/04 11:39:11;;;;;;;17.35;13.32;;;;;;;;;;5010802;28;20026;-78
2023/05/04 11:41:36;;;;;;;17.30;14.02;;;;;;;;;;5027098;28;20039;-77
2023/05/04 11:44:02;;;;;;;14.35;12.50;;;;;;;;;;5027692;28;20033;-79
2023/05/04 11:46:27;;;;;;;14.75;12.70;;;;;;;;;;5015996;28;20014;-79
2023/05/04 11:48:53;;;;;;;12.05;10.73;;;;;;;;;;5009336;28;20033;-78
2023/05/04 11:51:21;;;;;;;14.38;12.02;;;;;;;;;;5026923;28;20047;-77
2023/05/04 11:53:46;;;;;;;12.95;11.65;;;;;;;;;;5025175;28;20471;-80
2023/05/04 11:56:11;;;;;;;13.45;12.15;;;;;;;;;;5027331;28;20033;-80
2023/05/04 11:58:37;;;;;;;16.10;11.40;;;;;;;;;;5024965;28;20096;-78
2023/05/04 12:01:03;;;;;;;11.48;10.38;;;;;;;;;;5023960;28;20021;-80
2023/05/04 12:03:30;;;;;;;11.43;9.57;;;;;;;;;;5023058;28;20029;-79
2023/05/04 12:05:56;;;;;;;10.30;9.30;;;;;;;;;;5005837;28;20458;-79
2023/05/04 12:08:24;;;;;;;8.48;7.68;;;;;;;;;;5023644;28;20048;-79
2023/05/04 12:10:50;;;;;;;10.68;9.57;;;;;;;;;;5018932;28;20108;-77
2023/05/04 12:13:16;;;;;;;10.02;8.38;;;;;;;;;;5021136;28;20238;-77
2023/05/04 12:15:41;;;;;;;8.85;7.95;;;;;;;;;;5013542;28;20407;-77
2023/05/04 12:18:06;;;;;;;8.50;7.63;;;;;;;;;;5025501;28;20025;-77
2023/05/04 12:20:32;;;;;;;8.30;7.35;;;;;;;;;;5024108;28;20407;-77
2023/05/04 12:23:04;;;;;;;8.23;7.40;;;;;;;;;;5005955;28;20030;-79
2023/05/04 12:25:29;;;;;;;8.23;7.53;;;;;;;;;;5019088;28;20021;-80
2023/05/04 12:27:55;;;;;;;7.38;6.68;;;;;;;;;;5021766;28;20017;-80
2023/05/04 12:30:21;;;;;;;7.78;7.07;;;;;;;;;;5021592;28;20114;-79
2023/05/04 12:32:46;;;;;;;8.82;7.78;;;;;;;;;;5022850;28;20042;-79
2023/05/04 12:35:11;;;;;;;8.93;8.15;;;;;;;;;;5025415;28;20018;-77
2023/05/04 12:37:37;;;;;;;8.88;8.07;;;;;;;;;;5025271;28;20021;-79
2023/05/04 12:40:03;;;;;;;8.77;7.93;;;;;;;;;;5000622;28;20105;-78
2023/05/04 12:42:28;;;;;;;9.27;8.05;;;;;;;;;;5009611;28;20045;-79
2023/05/04 12:44:53;;;;;;;7.50;6.90;;;;;;;;;;5024154;28;20083;-78
2023/05/04 12:47:22;;;;;;;7.38;6.78;;;;;;;;;;5029620;28;20267;-78
2023/05/04 12:49:48;;;;;;;7.03;6.20;;;;;;;;;;5009328;28;20479;-77
2023/05/04 12:52:13;;;;;;;7.57;6.70;;;;;;;;;;5030503;28;20036;-78
2023/05/04 12:54:38;;;;;;;9.25;6.75;;;;;;;;;;5029101;28;20024;-78
2023/05/04 12:57:03;;;;;;;8.02;7.30;;;;;;;;;;5029021;28;20518;-80
2023/05/04 12:59:29;;;;;;;8.55;7.82;;;;;;;;;;5025858;28;20021;-80
2023/05/04 13:01:54;;;;;;;8.85;8.13;;;;;;;;;;5028992;28;20486;-79
2023/05/04 13:04:20;;;;;;;9.80;8.90;;;;;;;;;;5028380;28;20096;-80
2023/05/04 13:06:45;;;;;;;9.55;8.57;;;;;;;;;;4995423;28;20455;-83
2023/05/04 13:09:11;;;;;;;9.13;8.30;;;;;;;;;;5024729;28;20474;-80
2023/05/04 13:11:37;;;;;;;8.77;7.65;;;;;;;;;;5009358;28;20030;-79
2023/05/04 13:14:02;;;;;;;9.77;8.77;;;;;;;;;;5025999;28;20075;-80
2023/05/04 13:16:29;;;;;;;9.77;8.88;;;;;;;;;;5009966;28;20028;-79
2023/05/04 13:18:54;;;;;;;8.90;8.15;;;;;;;;;;5026619;28;20017;-79
2023/05/04 13:21:20;;;;;;;9.82;7.90;;;;;;;;;;5007862;28;20869;-80
2023/05/04 13:23:45;;;;;;;7.13;6.53;;;;;;;;;;5008810;28;20042;-78
2023/05/04 13:26:11;;;;;;;7.65;6.95;;;;;;;;;;5024715;28;20022;-78
2023/05/04 13:28:37;;;;;;;8.32;6.68;;;;;;;;;;5026203;28;20025;-79
2023/05/04 13:31:04;;;;;;;6.95;6.30;;;;;;;;;;5020427;28;20283;-81
2023/05/04 13:33:29;;;;;;;6.80;6.22;;;;;;;;;;5011393;28;20048;-79
2023/05/04 13:35:56;;;;;;;6.55;5.95;;;;;;;;;;5007788;28;20768;-79
2023/05/04 13:38:21;;;;;;;7.10;6.50;;;;;;;;;;5024237;28;20017;-79
2023/05/04 13:40:47;;;;;;;6.75;5.97;;;;;;;;;;5004502;28;20449;-80
2023/05/04 13:43:12;;;;;;;6.55;6.05;;;;;;;;;;5012436;28;20504;-80
2023/05/04 13:45:38;;;;;;;6.78;6.18;;;;;;;;;;5018404;28;20549;-79
2023/05/04 13:48:03;;;;;;;6.28;5.78;;;;;;;;;;5028858;28;20029;-78
2023/05/04 13:50:30;;;;;;;6.30;5.80;;;;;;;;;;5027724;28;20014;-79
2023/05/04 13:52:55;;;;;;;6.13;5.57;;;;;;;;;;5014733;28;20070;-85
2023/05/04 13:55:20;;;;;;;4.68;4.30;;;;;;;;;;5025704;28;20026;-84
2023/05/04 13:57:46;;;;;;;2.83;2.63;;;;;;;;;;5005076;28;20053;-81
2023/05/04 14:00:15;;;;;;;4.47;2.20;;;;;;;;;;5020710;28;20033;-82
2023/05/04 14:02:40;;;;;;;;;;;;;;;;;;5032140;28;20026;-80
2023/05/04 14:05:06;;;;;;;2.08;1.98;;;;;;;;;;5008887;28;19913;-79
2023/05/04 14:07:32;;;;;;;2.33;2.15;;;;;;;;;;5030116;28;20052;-80
2023/05/04 14:09:58;;;;;;;2.47;2.28;;;;;;;;;;5034468;28;20021;-79
2023/05/04 14:12:23;;;;;;;2.63;2.33;;;;;;;;;;5029656;28;20048;-76
2023/05/04 14:14:52;;;;;;;4.15;2.10;;;;;;;;;;5014306;28;20025;-79
2023/05/04 14:17:17;;;;;;;1.73;1.63;;;;;;;;;;5017469;28;20028;-77
2023/05/04 14:19:43;;;;;;;1.88;1.77;;;;;;;;;;5016478;28;20013;-76
2023/05/04 14:22:08;;;;;;;1.40;1.30;;;;;;;;;;5026966;28;20085;-79
2023/05/04 14:24:35;;;;;;;1.90;1.80;;;;;;;;;;5021083;28;20084;-77
2023/05/04 14:27:00;;;;;;;3.75;1.45;;;;;;;;;;5022118;28;20178;-79
2023/05/04 14:29:26;;;;;;;2.33;1.50;;;;;;;;;;5024888;28;20029;-77
2023/05/04 14:31:51;;;;;;;1.63;1.52;;;;;;;;;;5005515;28;20112;-76
2023/05/04 14:34:17;;;;;;;1.83;1.33;;;;;;;;;;5007303;28;20408;-77
2023/05/04 14:36:42;;;;;;;2.45;1.45;;;;;;;;;;5006745;28;20053;-78
2023/05/04 14:39:08;;;;;;;1.42;1.33;;;;;;;;;;5023022;28;20497;-78
2023/05/04 14:41:35;;;;;;;2.33;1.25;;;;;;;;;;5022917;28;20021;-76
2023/05/04 14:44:01;;;;;;;1.38;1.27;;;;;;;;;;5023024;28;20033;-80
2023/05/04 14:46:27;;;;;;;1.42;1.30;;;;;;;;;;5008000;28;20091;-77
2023/05/04 14:48:53;;;;;;;1.92;1.50;;;;;;;;;;5023241;28;20090;-78
2023/05/04 14:51:22;;;;;;;1.38;1.23;;;;;;;;;;5022418;28;20418;-78
2023/05/04 14:53:48;;;;;;;3.00;1.45;;;;;;;;;;5020908;28;20517;-77
2023/05/04 14:56:13;;;;;;;1.33;1.23;;;;;;;;;;5005392;28;20022;-77
2023/05/04 14:58:38;;;;;;;1.38;1.27;;;;;;;;;;5020450;28;20045;-78
2023/05/04 15:01:04;;;;;;;1.80;1.20;;;;;;;;;;5017215;28;20407;-78
2023/05/04 15:03:30;;;;;;;2.03;1.20;;;;;;;;;;5007686;28;20295;-80
2023/05/04 15:05:55;;;;;;;2.92;1.00;;;;;;;;;;5007984;28;20017;-78
2023/05/04 15:08:20;;;;;;;1.20;1.10;;;;;;;;;;5009535;28;20033;-77
2023/05/04 15:10:45;;;;;;;0.90;0.90;;;;;;;;;;4993072;28;20026;-78
2023/05/04 15:13:14;;;;;;;1.35;1.00;;;;;;;;;;5016158;28;20516;-78
2023/05/04 15:15:39;;;;;;;1.38;0.70;;;;;;;;;;5018487;28;20029;-78
2023/05/04 15:18:05;;;;;;;1.20;1.10;;;;;;;;;;5021944;28;20486;-78
2023/05/04 15:20:30;;;;;;;0.88;0.88;;;;;;;;;;5017561;28;20041;-78
2023/05/04 15:22:55;;;;;;;2.33;1.02;;;;;;;;;;5010154;28;20029;-78
2023/05/04 15:25:22;;;;;;;1.23;1.02;;;;;;;;;;5017556;28;20021;-78
2023/05/04 15:27:47;;;;;;;1.98;1.23;;;;;;;;;;5017489;28;20036;-77
2023/05/04 15:30:13;;;;;;;0.90;0.90;;;;;;;;;;5024633;28;20021;-80
2023/05/04 15:32:38;;;;;;;1.15;1.05;;;;;;;;;;5021086;28;20513;-79
2023/05/04 15:35:07;;;;;;;1.00;1.00;;;;;;;;;;5026394;28;20024;-79
2023/05/04 15:37:32;;;;;;;2.78;1.45;;;;;;;;;;5015396;28;20405;-80
2023/05/04 15:39:57;;;;;;;3.50;1.20;;;;;;;;;;5018172;28;20036;-77
2023/05/04 15:42:22;;;;;;;2.25;1.40;;;;;;;;;;5020181;28;20041;-78
2023/05/04 15:44:48;;;;;;;1.20;1.10;;;;;;;;;;4996389;28;20029;-78
2023/05/04 15:47:13;;;;;;;1.52;1.17;;;;;;;;;;4993743;28;20030;-77
2023/05/04 15:49:39;;;;;;;1.27;1.17;;;;;;;;;;4997791;28;20026;-76
2023/05/04 15:52:04;;;;;;;1.90;1.45;;;;;;;;;;5015327;28;20049;-76
2023/05/04 15:54:30;;;;;;;1.30;1.20;;;;;;;;;;4994405;28;20037;-76
2023/05/04 15:56:56;;;;;;;1.38;1.27;;;;;;;;;;4991177;28;20104;-80
2023/05/04 15:59:21;;;;;;;2.33;1.00;;;;;;;;;;5012337;28;20026;-80
2023/05/04 16:01:46;;;;;;;2.60;1.13;;;;;;;;;;5004724;28;20080;-80
2023/05/04 16:04:12;;;;;;;1.17;1.08;;;;;;;;;;5028033;28;20352;-80
2023/05/04 16:06:37;;;;;;;3.92;1.30;;;;;;;;;;5003359;28;20022;-79
2023/05/04 16:09:03;;;;;;;2.22;1.20;;;;;;;;;;5022404;28;20027;-80
2023/05/04 16:11:29;;;;;;;1.30;0.95;;;;;;;;;;5022467;28;20779;-78
2023/05/04 16:13:54;;;;;;;1.30;1.20;;;;;;;;;;4994222;28;20029;-79
2023/05/04 16:16:20;;;;;;;0.85;0.85;;;;;;;;;;5014003;28;20021;-79
2023/05/04 16:18:45;;;;;;;3.03;0.98;;;;;;;;;;5009522;28;20514;-80
2023/05/04 16:21:12;;;;;;;1.48;1.15;;;;;;;;;;5010142;28;20104;-77
2023/05/04 16:23:38;;;;;;;3.33;1.02;;;;;;;;;;5024686;28;20041;-79
2023/05/04 16:26:03;;;;;;;2.92;1.30;;;;;;;;;;5014173;28;20013;-79
2023/05/04 16:28:28;;;;;;;2.42;1.38;;;;;;;;;;5002173;28;20042;-79
2023/05/04 16:30:54;;;;;;;1.30;1.20;;;;;;;;;;5021284;28;20138;-79
2023/05/04 16:33:19;;;;;;;1.30;1.20;;;;;;;;;;5015361;28;20499;-78
2023/05/04 16:35:54;;;;;;;1.38;1.27;;;;;;;;;;5011994;28;20017;-78
2023/05/04 16:38:19;;;;;;;1.27;1.17;;;;;;;;;;5023691;28;20048;-80
2023/05/04 16:40:44;;;;;;;1.45;1.35;;;;;;;;;;5040158;28;20020;-79
2023/05/04 16:43:10;;;;;;;1.55;1.45;;;;;;;;;;5037944;28;20036;-79
2023/05/04 16:45:35;;;;;;;2.10;1.90;;;;;;;;;;5037440;28;20021;-79
2023/05/04 16:48:01;;;;;;;1.92;1.83;;;;;;;;;;5004266;28;20345;-78
2023/05/04 16:50:26;;;;;;;2.35;2.10;;;;;;;;;;5018128;28;20033;-80
2023/05/04 16:52:52;;;;;;;2.17;1.98;;;;;;;;;;5024311;28;20056;-81
2023/05/04 16:55:17;;;;;;;2.60;2.40;;;;;;;;;;5014289;28;20081;-80
2023/05/04 16:57:42;;;;;;;2.63;2.42;;;;;;;;;;5038924;28;20099;-80
2023/05/04 17:00:09;;;;;;;2.35;2.15;;;;;;;;;;5026604;28;20013;-79
2023/05/04 17:02:34;;;;;;;2.13;1.98;;;;;;;;;;5031885;28;20034;-79
2023/05/04 17:05:00;;;;;;;2.30;2.20;;;;;;;;;;5032942;28;20048;-80
2023/05/04 17:07:28;;;;;;;3.28;2.30;;;;;;;;;;5035376;28;20014;-80
2023/05/04 17:09:53;;;;;;;2.22;2.03;;;;;;;;;;5033086;28;20029;-79
2023/05/04 17:12:18;;;;;;;2.10;2.00;;;;;;;;;;5016462;28;20028;-79
2023/05/04 17:14:47;;;;;;;5.25;2.33;;;;;;;;;;5010514;28;20047;-82
2023/05/04 17:17:13;;;;;;;2.13;1.92;;;;;;;;;;5009300;28;20036;-81
2023/05/04 17:19:40;;;;;;;3.70;3.40;;;;;;;;;;5002933;28;20041;-80
2023/05/04 17:22:05;;;;;;;3.35;3.05;;;;;;;;;;5008396;28;20025;-79
2023/05/04 17:24:31;;;;;;;3.08;2.88;;;;;;;;;;5028499;28;20474;-79
2023/05/04 17:26:57;;;;;;;2.60;2.40;;;;;;;;;;5041595;28;20422;-79
2023/05/04 17:29:22;;;;;;;4.40;2.65;;;;;;;;;;5021338;28;20026;-79
2023/05/04 17:31:48;;;;;;;2.92;2.63;;;;;;;;;;5036296;28;20013;-79
2023/05/04 17:34:13;;;;;;;2.75;2.55;;;;;;;;;;5033799;28;20033;-78
2023/05/04 17:36:38;;;;;;;2.70;2.50;;;;;;;;;;4997940;28;20419;-79
2023/05/04 17:39:04;;;;;;;2.38;2.17;;;;;;;;;;5023596;28;20053;-78
2023/05/04 17:41:30;;;;;;;3.05;2.83;;;;;;;;;;5018409;28;20030;-78
2023/05/04 17:43:55;;;;;;;3.03;2.80;;;;;;;;;;5025585;28;20033;-78
2023/05/04 17:46:21;;;;;;;3.10;2.90;;;;;;;;;;5011375;28;20022;-79
2023/05/04 17:48:46;;;;;;;3.42;3.13;;;;;;;;;;5022734;28;20030;-78
2023/05/04 17:51:11;;;;;;;4.10;2.92;;;;;;;;;;5020752;28;20447;-79
2023/05/04 17:53:37;;;;;;;4.15;3.10;;;;;;;;;;5030588;28;20018;-79
2023/05/04 17:56:02;;;;;;;3.80;3.42;;;;;;;;;;5035163;28;20033;-79
2023/05/04 17:58:27;;;;;;;3.42;3.13;;;;;;;;;;5018005;28;20100;-79
2023/05/04 18:00:53;;;;;;;3.15;2.90;;;;;;;;;;4994449;28;20478;-78
2023/05/04 18:03:18;;;;;;;3.38;3.10;;;;;;;;;;5018378;28;20565;-77
2023/05/04 18:05:45;;;;;;;3.47;3.17;;;;;;;;;;5016130;28;20506;-78
2023/05/04 18:08:10;;;;;;;3.20;3.00;;;;;;;;;;5022916;28;20029;-79
2023/05/04 18:10:36;;;;;;;2.65;2.53;;;;;;;;;;4995877;28;20454;-78
2023/05/04 18:13:01;;;;;;;3.72;3.42;;;;;;;;;;5026231;28;20025;-78
2023/05/04 18:15:26;;;;;;;4.00;3.63;;;;;;;;;;5033124;28;20017;-78
2023/05/04 18:17:52;;;;;;;3.65;3.30;;;;;;;;;;5026621;28;20017;-78
2023/05/04 18:20:17;;;;;;;4.05;3.13;;;;;;;;;;5007669;28;20112;-79
2023/05/04 18:22:43;;;;;;;3.55;3.25;;;;;;;;;;5027822;28;20029;-78
2023/05/04 18:25:08;;;;;;;3.72;3.40;;;;;;;;;;5007076;28;20490;-78
2023/05/04 18:27:34;;;;;;;3.53;3.20;;;;;;;;;;5028461;28;20021;-79
2023/05/04 18:29:59;;;;;;;4.65;4.03;;;;;;;;;;5024270;28;20102;-77
2023/05/04 18:32:25;;;;;;;3.92;3.60;;;;;;;;;;5025611;28;20021;-78
2023/05/04 18:34:53;;;;;;;6.80;6.25;;;;;;;;;;5027476;28;20017;-78
2023/05/04 18:37:18;;;;;;;4.88;4.38;;;;;;;;;;5020232;28;20018;-78
2023/05/04 18:39:44;;;;;;;4.15;3.80;;;;;;;;;;5032837;28;20020;-78
2023/05/04 18:42:09;;;;;;;3.40;3.10;;;;;;;;;;5027318;28;20043;-77
2023/05/04 18:44:35;;;;;;;3.55;3.30;;;;;;;;;;5008107;28;20025;-78
2023/05/04 18:47:00;;;;;;;3.47;3.07;;;;;;;;;;5025597;28;20097;-78
2023/05/04 18:49:25;;;;;;;4.97;3.00;;;;;;;;;;5010709;28;20268;-78
2023/05/04 18:51:51;;;;;;;3.10;2.88;;;;;;;;;;5026449;28;20017;-78
2023/05/04 18:54:16;;;;;;;3.70;3.40;;;;;;;;;;5021604;28;20093;-79
2023/05/04 18:56:42;;;;;;;5.22;3.08;;;;;;;;;;5018209;28;20623;-77
2023/05/04 18:59:09;;;;;;;3.00;2.80;;;;;;;;;;5007541;28;20032;-78
2023/05/04 19:01:34;;;;;;;3.25;3.05;;;;;;;;;;5023811;28;20014;-78
2023/05/04 19:04:00;;;;;;;3.33;3.03;;;;;;;;;;5002767;28;20096;-78
2023/05/04 19:06:25;;;;;;;3.10;2.80;;;;;;;;;;5025442;28;20025;-78
2023/05/04 19:08:50;;;;;;;4.05;3.65;;;;;;;;;;5035648;28;20084;-78